GTBK1: Arkansas River At Great Bend

Data processed at Tue May 21 2019 23:50


All information presented herein is the property of the government of the United States of America and may be revised or deleted at any time without prior notice.
Dissemination of this information without the expressed written consent of the Public Affairs Office, Tulsa District U.S. Army Corps of Engineers is strictly prohibited.
These data are gathered electronically and, as presented, have not undergone any form of quality control. These data are not guaranteed to be valid or correct.
Go to home page.
Go to station list.
Go to home page.

Upstream stations:

Downstream station:
Previous Day
Next Day
Current Day
    
SHEF ID:       GTBK1     ARKANSAS R AT GREAT BEND, KS
STATION TYPE:  

               PRECIP     STAGE  RIV-FLOW  AIR-TEMP  BAT-LOAD
                   in        ft       cfs         F      volt
              Ccp-Rev   Ccp-Rev   Ccp-Rev   Ccp-Rev   Ccp-Rev
(US/Central)
05/21 00:00      0.00      3.87       440     47.60     12.65
05/21 01:00      0.00      4.07       497     47.22     12.65
05/21 02:00      0.00      4.28       562     47.65     12.65
05/21 03:00      0.00      4.47       625     48.54     12.65
05/21 04:00      0.02      4.57       660     49.33     12.65
05/21 05:00      0.08      4.65       688     49.35     12.65
05/21 06:00      0.14      4.71       711     50.07     12.65
05/21 07:00      0.02      4.75       726     52.01     12.65
05/21 08:00      0.00      4.78       737     53.56     12.65
05/21 09:00      0.00      4.82       752     54.33     12.65
05/21 10:00      0.08      4.88       776     54.76     12.65
05/21 11:00      0.18      4.99       820     57.60     12.65
05/21 12:00      0.03      5.11       870     57.60     13.12
05/21 13:00      0.08      5.27       939     55.40     13.00
05/21 14:00      0.00      5.44      1017     61.35     13.88
05/21 15:00      0.00      5.65      1118     63.06     13.48
05/21 16:00      0.16      5.93      1263     67.78     14.06
05/21 17:00      0.00      6.23      1430     68.84     13.77
05/21 18:00      0.00      6.54      1618     62.39     13.36
05/21 19:00      0.05      6.93      1876     56.74     13.07
05/21 20:00      0.00      7.16      2039     58.08     13.12
05/21 21:00      0.00      7.41      2227     54.56     13.00
05/21 22:00      0.00      7.61      2385     51.50     12.89
05/21 23:00      0.00      7.86      2592     49.02     12.89